createdAt,value
2017-08-19T00:04:49.027Z,56.1
2017-08-19T00:09:54.771Z,56
2017-08-19T00:15:00.522Z,56
2017-08-19T00:20:05.937Z,56
2017-08-19T00:25:11.676Z,56
2017-08-19T00:30:17.448Z,56
2017-08-19T00:35:23.257Z,56
2017-08-19T00:40:28.683Z,56
2017-08-19T00:45:34.453Z,56
2017-08-19T00:50:40.214Z,55.9
2017-08-19T00:55:45.645Z,55.9
2017-08-19T01:00:50.714Z,55.9
2017-08-19T01:05:56.120Z,55.9
2017-08-19T01:11:01.195Z,55.9
2017-08-19T01:16:07.271Z,55.8
2017-08-19T01:21:12.681Z,55.8
2017-08-19T01:26:18.089Z,55.8
2017-08-19T01:31:23.497Z,55.7
2017-08-19T01:36:29.572Z,55.7
2017-08-19T01:41:34.980Z,55.6
2017-08-19T01:46:39.719Z,55.6
2017-08-19T01:51:44.802Z,55.6
2017-08-19T01:56:50.553Z,55.5
2017-08-19T02:01:55.969Z,55.5
2017-08-19T02:07:01.380Z,55.5
2017-08-19T02:12:07.478Z,55.5
2017-08-19T02:17:12.893Z,55.4
2017-08-19T02:22:18.992Z,55.4
2017-08-19T02:27:24.410Z,55.4
2017-08-19T02:32:30.498Z,55.3
2017-08-19T02:37:35.911Z,55.3
2017-08-19T02:42:41.663Z,55.4
2017-08-19T02:47:46.753Z,55.3
2017-08-19T02:52:52.509Z,55.3
2017-08-19T02:57:58.257Z,55.3
2017-08-19T03:03:04.021Z,55.3
2017-08-19T03:08:09.756Z,55.3
2017-08-19T03:13:15.181Z,55.3
2017-08-19T03:18:20.264Z,55.2
2017-08-19T03:23:26.360Z,55.2
2017-08-19T03:28:31.773Z,55.2
2017-08-19T03:33:37.873Z,55.2
2017-08-19T03:38:43.609Z,55.2
2017-08-19T03:43:48.689Z,55.2
2017-08-19T03:48:54.093Z,55.2
2017-08-19T03:53:59.172Z,55.1
2017-08-19T03:59:05.255Z,55.1
2017-08-19T04:04:10.006Z,55.1
2017-08-19T04:09:15.088Z,55.1
2017-08-19T04:14:20.843Z,55.1
2017-08-19T04:19:25.597Z,55
2017-08-19T04:24:31.019Z,55
2017-08-19T04:29:36.100Z,55
2017-08-19T04:34:41.178Z,55
2017-08-19T04:39:47.260Z,55
2017-08-19T04:44:52.340Z,55
2017-08-19T04:49:57.751Z,55
2017-08-19T04:55:03.166Z,54.9
2017-08-19T05:00:08.252Z,54.9
2017-08-19T05:05:13.342Z,54.8
2017-08-19T05:10:19.090Z,54.8
2017-08-19T05:15:23.841Z,54.8
2017-08-19T05:20:28.918Z,54.7
2017-08-19T05:25:35.010Z,54.7
2017-08-19T05:30:40.762Z,54.7
2017-08-19T05:35:46.529Z,54.7
2017-08-19T05:40:52.285Z,54.7
2017-08-19T05:45:57.708Z,54.6
2017-08-19T05:51:02.794Z,54.6
2017-08-19T05:56:08.211Z,54.5
2017-08-19T06:01:13.965Z,54.4
2017-08-19T06:06:19.389Z,54.2
2017-08-19T06:11:25.150Z,54.2
2017-08-19T06:16:29.907Z,54.2
2017-08-19T06:21:35.334Z,54.1
2017-08-19T06:26:41.096Z,54
2017-08-19T06:31:46.845Z,54
2017-08-19T06:36:52.601Z,53.9
2017-08-19T06:41:58.697Z,53.8
2017-08-19T06:47:04.464Z,53.6
2017-08-19T06:52:10.098Z,53.5
2017-08-19T06:57:15.905Z,53.4
2017-08-19T07:02:20.662Z,53.2
2017-08-19T07:07:26.413Z,53
2017-08-19T07:12:32.182Z,52.9
2017-08-19T07:17:37.610Z,52.7
2017-08-19T07:22:43.370Z,52.5
2017-08-19T07:27:48.793Z,52.4
2017-08-19T07:32:53.902Z,52.3
2017-08-19T07:37:59.560Z,51.8
2017-08-19T07:43:05.057Z,51.4
2017-08-19T07:48:10.881Z,51.1
2017-08-19T07:53:16.655Z,50.6
2017-08-19T07:58:22.775Z,49.9
2017-08-19T08:03:28.592Z,49.2
2017-08-19T08:08:34.089Z,48.7
2017-08-19T08:13:39.275Z,48.4
2017-08-19T08:18:45.078Z,44.3
2017-08-19T08:23:50.913Z,45.5
2017-08-19T08:28:57.294Z,47.6
2017-08-19T08:34:03.486Z,47.1
2017-08-19T08:39:08.955Z,45.8
2017-08-19T08:44:14.482Z,45
2017-08-19T08:49:20.010Z,45
2017-08-19T08:54:25.817Z,45.2
2017-08-19T08:59:31.029Z,45.7
2017-08-19T09:04:36.505Z,42.3
2017-08-19T09:09:41.681Z,41.8
2017-08-19T09:14:47.501Z,42.3
2017-08-19T09:19:53.681Z,42.5
2017-08-19T09:24:59.145Z,42.6
2017-08-19T09:30:04.650Z,43
2017-08-19T09:35:10.478Z,44.2
2017-08-19T09:40:15.632Z,44.9
2017-08-19T09:45:21.141Z,45.2
2017-08-19T09:50:26.312Z,46
2017-08-19T09:55:32.286Z,46.7
2017-08-19T10:00:38.174Z,46.6
2017-08-19T10:05:43.686Z,46.4
2017-08-19T10:10:49.460Z,46.4
